createdAt,value
2022-08-05T00:00:29.761Z,100487.88
2022-08-05T00:03:22.102Z,100486.14
2022-08-05T00:06:20.189Z,100484.70
2022-08-05T00:09:12.823Z,100484.86
2022-08-05T00:11:59.860Z,100481.77
2022-08-05T00:14:42.044Z,100479.01
2022-08-05T00:17:24.041Z,100479.34
2022-08-05T00:20:08.233Z,100475.40
2022-08-05T00:22:59.607Z,100475.84
2022-08-05T00:25:45.897Z,100469.76
2022-08-05T00:28:29.652Z,100466.16
2022-08-05T00:31:11.893Z,100469.79
2022-08-05T00:34:56.731Z,100472.98
2022-08-05T00:37:12.534Z,100475.89
2022-08-05T00:39:57.816Z,100470.27
2022-08-05T00:42:41.722Z,100471.86
2022-08-05T00:45:28.210Z,100465.80
2022-08-05T00:48:31.251Z,100463.31
2022-08-05T00:51:50.789Z,100461.87
2022-08-05T00:54:16.922Z,100460.55
2022-08-05T00:56:59.125Z,100459.83
2022-08-05T00:59:44.689Z,100457.46
2022-08-05T01:02:27.423Z,100455.10
2022-08-05T01:05:10.010Z,100457.27
2022-08-05T01:08:40.847Z,100457.61
2022-08-05T01:10:59.939Z,100460.86
2022-08-05T01:13:59.081Z,100458.56
2022-08-05T01:16:50.354Z,100458.15
2022-08-05T01:20:01.723Z,100456.09
2022-08-05T01:23:01.089Z,100453.55
2022-08-05T01:26:26.990Z,100443.95
2022-08-05T01:29:27.403Z,100441.23
2022-08-05T01:32:19.846Z,100442.81
2022-08-05T01:35:10.660Z,100440.38
2022-08-05T01:37:58.119Z,100436.58
2022-08-05T01:40:42.841Z,100440.41
2022-08-05T01:43:28.177Z,100436.43
2022-08-05T01:46:16.446Z,100437.17
2022-08-05T01:49:24.167Z,100435.64
2022-08-05T01:52:12.394Z,100437.30
2022-08-05T01:55:04.444Z,100438.39
2022-08-05T01:58:11.967Z,100436.98
2022-08-05T02:00:54.651Z,100433.59
2022-08-05T02:03:39.235Z,100431.70
2022-08-05T02:06:37.258Z,100425.80
2022-08-05T02:09:21.023Z,100426.98
2022-08-05T02:12:17.255Z,100421.66
2022-08-05T02:15:07.445Z,100422.80
2022-08-05T02:18:32.172Z,100421.02
2022-08-05T02:21:15.333Z,100424.54
2022-08-05T02:24:04.745Z,100421.13
2022-08-05T02:26:53.824Z,100422.71
2022-08-05T02:29:59.569Z,100418.63
2022-08-05T02:32:43.209Z,100414.05
2022-08-05T02:35:28.186Z,100412.13
2022-08-05T02:38:19.462Z,100412.31
2022-08-05T02:41:14.761Z,100409.64
2022-08-05T02:44:06.220Z,100404.55
2022-08-05T02:46:59.995Z,100400.43
2022-08-05T02:49:45.050Z,100400.41
2022-08-05T02:52:30.476Z,100400.56
2022-08-05T02:55:14.378Z,100401.98
2022-08-05T02:58:12.161Z,100399.19
2022-08-05T03:00:57.119Z,100396.48
2022-08-05T03:04:02.666Z,100397.67
2022-08-05T03:06:54.424Z,100394.36
2022-08-05T03:09:43.990Z,100395.32
2022-08-05T03:12:38.762Z,100391.23
2022-08-05T03:15:23.436Z,100391.62
2022-08-05T03:18:06.138Z,100387.63
2022-08-05T03:20:49.673Z,100387.67
2022-08-05T03:23:33.925Z,100386.21
2022-08-05T03:26:31.353Z,100387.77
2022-08-05T03:29:17.432Z,100389.29
2022-08-05T03:32:00.773Z,100390.58
2022-08-05T03:34:50.741Z,100388.11
2022-08-05T03:37:44.776Z,100382.50
2022-08-05T03:40:31.934Z,100378.36
2022-08-05T03:43:58.579Z,100378.38
2022-08-05T03:46:17.390Z,100372.13
2022-08-05T03:49:01.774Z,100369.89
2022-08-05T03:52:50.386Z,100368.38
2022-08-05T03:56:05.164Z,100370.84
2022-08-05T03:58:05.595Z,100373.21
2022-08-05T04:00:51.563Z,100373.73
2022-08-05T04:03:38.129Z,100380.44
2022-08-05T04:06:20.604Z,100381.41
2022-08-05T04:09:06.344Z,100374.81
2022-08-05T04:11:52.649Z,100375.45
2022-08-05T04:14:36.938Z,100375.61
2022-08-05T04:17:19.551Z,100376.30
2022-08-05T04:20:01.552Z,100373.90
2022-08-05T04:22:44.570Z,100371.42
2022-08-05T04:25:57.572Z,100371.72
2022-08-05T04:28:30.927Z,100375.38
2022-08-05T04:31:13.706Z,100374.27
2022-08-05T04:34:31.175Z,100370.59
2022-08-05T04:36:57.879Z,100371.52
2022-08-05T04:39:40.091Z,100367.11
2022-08-05T04:42:25.526Z,100367.60
2022-08-05T04:45:08.223Z,100372.06
2022-08-05T04:48:07.247Z,100369.45
2022-08-05T04:51:02.593Z,100372.34
2022-08-05T04:53:45.909Z,100370.38
2022-08-05T04:56:34.946Z,100374.20
2022-08-05T04:59:24.091Z,100371.59
2022-08-05T05:02:41.956Z,100372.42
2022-08-05T05:05:28.269Z,100374.39
2022-08-05T05:08:14.354Z,100367.13
2022-08-05T05:11:08.863Z,100368.67
2022-08-05T05:13:50.760Z,100366.23
2022-08-05T05:16:37.363Z,100366.84
2022-08-05T05:19:26.662Z,100364.66
2022-08-05T05:22:23.488Z,100368.01
2022-08-05T05:25:16.481Z,100365.58
2022-08-05T05:27:59.792Z,100364.66
2022-08-05T05:30:41.662Z,100363.20
2022-08-05T05:33:24.169Z,100364.31
2022-08-05T05:36:06.271Z,100361.17
2022-08-05T05:38:48.166Z,100359.19
2022-08-05T05:41:40.335Z,100354.08
2022-08-05T05:44:35.650Z,100356.41
2022-08-05T05:47:21.473Z,100358.05
2022-08-05T05:50:05.294Z,100357.11
2022-08-05T05:52:48.364Z,100356.67
2022-08-05T05:55:51.673Z,100353.98
2022-08-05T05:58:34.685Z,100357.33
2022-08-05T06:01:23.436Z,100353.90
2022-08-05T06:04:12.203Z,100352.78
2022-08-05T06:06:54.549Z,100349.63
2022-08-05T06:10:01.599Z,100338.67
2022-08-05T06:12:42.112Z,100343.85
2022-08-05T06:15:24.521Z,100345.77
2022-08-05T06:18:31.621Z,100340.70
2022-08-05T06:21:18.480Z,100343.58
2022-08-05T06:24:01.892Z,100349.85
2022-08-05T06:26:52.319Z,100350.05
2022-08-05T06:29:49.610Z,100353.02
2022-08-05T06:32:38.502Z,100352.15
2022-08-05T06:36:07.066Z,100356.99
2022-08-05T06:38:36.223Z,100355.20
2022-08-05T06:41:19.108Z,100354.92
2022-08-05T06:44:04.690Z,100351.96
2022-08-05T06:46:47.611Z,100345.54
2022-08-05T06:50:00.807Z,100345.71
2022-08-05T06:52:37.174Z,100340.16
2022-08-05T06:55:20.536Z,100342.09
2022-08-05T06:58:29.238Z,100335.33
2022-08-05T07:01:07.365Z,100336.05
2022-08-05T07:03:49.469Z,100330.08
2022-08-05T07:06:32.173Z,100333.05
2022-08-05T07:09:14.181Z,100329.94
2022-08-05T07:12:00.587Z,100326.82
2022-08-05T07:15:01.369Z,100325.98
2022-08-05T07:17:59.113Z,100326.06
2022-08-05T07:20:44.826Z,100326.45
2022-08-05T07:23:29.497Z,100324.95
2022-08-05T07:26:13.976Z,100325.46
2022-08-05T07:28:56.912Z,100326.25
2022-08-05T07:31:54.590Z,100322.59
2022-08-05T07:34:41.830Z,100327.63
2022-08-05T07:37:24.517Z,100325.13
2022-08-05T07:40:32.251Z,100325.06
2022-08-05T07:43:20.855Z,100320.20
2022-08-05T07:46:03.174Z,100316.44
2022-08-05T07:49:02.439Z,100321.36
2022-08-05T07:51:53.064Z,100318.66
2022-08-05T07:54:41.189Z,100317.11
2022-08-05T07:57:56.339Z,100318.00
2022-08-05T08:00:31.644Z,100323.80
2022-08-05T08:03:15.960Z,100322.44
2022-08-05T08:05:57.987Z,100327.66
2022-08-05T08:08:41.009Z,100322.11
2022-08-05T08:11:27.820Z,100321.02
2022-08-05T08:14:24.767Z,100321.52
2022-08-05T08:17:10.964Z,100314.52
2022-08-05T08:20:22.067Z,100319.77
2022-08-05T08:23:03.150Z,100316.21
2022-08-05T08:26:00.015Z,100317.47
2022-08-05T08:28:59.429Z,100314.28
2022-08-05T08:31:44.136Z,100314.92
2022-08-05T08:34:30.147Z,100312.52
2022-08-05T08:37:13.049Z,100309.70
2022-08-05T08:40:01.141Z,100309.52
2022-08-05T08:42:52.804Z,100305.65
2022-08-05T08:45:37.586Z,100308.38
2022-08-05T08:48:41.309Z,100310.69
2022-08-05T08:52:04.359Z,100308.77
2022-08-05T08:54:27.708Z,100308.48
2022-08-05T08:57:11.407Z,100303.89
2022-08-05T08:59:56.414Z,100302.82
2022-08-05T09:02:40.869Z,100297.35
2022-08-05T09:05:38.407Z,100297.73
2022-08-05T09:08:26.636Z,100296.81
2022-08-05T09:11:13.583Z,100299.02
2022-08-05T09:14:09.886Z,100296.45
2022-08-05T09:17:00.640Z,100288.14
2022-08-05T09:20:01.864Z,100292.23
2022-08-05T09:23:05.361Z,100288.20
2022-08-05T09:26:02.518Z,100287.89
2022-08-05T09:28:47.811Z,100287.28
2022-08-05T09:32:51.103Z,100286.83
2022-08-05T09:34:56.245Z,100291.09
2022-08-05T09:38:12.237Z,100287.90
2022-08-05T09:40:51.996Z,100291.33
2022-08-05T09:43:41.746Z,100286.09
2022-08-05T09:46:32.595Z,100283.82
2022-08-05T09:49:54.478Z,100278.45
2022-08-05T09:52:36.650Z,100276.52
2022-08-05T09:55:57.837Z,100271.91
2022-08-05T09:58:29.478Z,100269.33
2022-08-05T10:01:22.662Z,100266.66
2022-08-05T10:04:15.925Z,100260.26
2022-08-05T10:06:59.462Z,100259.20
2022-08-05T10:10:04.421Z,100263.91
2022-08-05T10:13:01.217Z,100269.98
2022-08-05T10:15:44.549Z,100263.83
2022-08-05T10:18:33.513Z,100257.76
2022-08-05T10:21:16.467Z,100259.13
2022-08-05T10:24:00.655Z,100255.02
2022-08-05T10:26:51.482Z,100250.21
2022-08-05T10:30:41.155Z,100243.18
2022-08-05T10:32:54.224Z,100242.77
2022-08-05T10:35:44.114Z,100237.12
2022-08-05T10:38:29.755Z,100234.54
2022-08-05T10:41:46.419Z,100230.33
2022-08-05T10:44:31.595Z,100232.17
2022-08-05T10:47:26.938Z,100233.90
2022-08-05T10:50:32.527Z,100235.64
2022-08-05T10:53:51.363Z,100232.27
2022-08-05T10:56:45.359Z,100227.55
2022-08-05T11:00:04.429Z,100227.31
2022-08-05T11:02:38.626Z,100221.20
2022-08-05T11:05:29.116Z,100221.98
2022-08-05T11:08:36.699Z,100222.36
2022-08-05T11:11:44.813Z,100226.35
2022-08-05T11:17:57.171Z,100217.58
2022-08-05T11:20:48.361Z,100211.44
2022-08-05T11:24:02.847Z,100208.64
2022-08-05T11:26:43.202Z,100206.73
2022-08-05T11:29:41.064Z,100210.35
2022-08-05T11:32:28.186Z,100208.66
2022-08-05T11:36:07.697Z,100209.55
2022-08-05T11:38:57.812Z,100201.95
2022-08-05T11:42:01.995Z,100202.85
2022-08-05T11:44:53.236Z,100201.75
2022-08-05T11:47:48.611Z,100209.92
2022-08-05T11:50:38.651Z,100214.28
2022-08-05T11:53:22.388Z,100214.20
2022-08-05T11:56:04.489Z,100208.13
2022-08-05T11:58:52.819Z,100202.89
2022-08-05T12:01:35.878Z,100201.23
2022-08-05T12:04:21.075Z,100202.64
2022-08-05T12:07:09.488Z,100200.40
2022-08-05T12:09:54.997Z,100198.84
2022-08-05T12:12:38.288Z,100198.16
2022-08-05T12:15:44.657Z,100197.23
2022-08-05T12:18:38.965Z,100194.06
2022-08-05T12:21:33.025Z,100191.65
2022-08-05T12:24:21.680Z,100184.05
2022-08-05T12:27:09.811Z,100182.23
2022-08-05T12:30:09.468Z,100180.27
2022-08-05T12:33:07.529Z,100176.36
2022-08-05T12:36:02.680Z,100172.49
2022-08-05T12:38:44.815Z,100173.82
2022-08-05T12:41:35.685Z,100170.23
2022-08-05T12:44:33.122Z,100169.78
2022-08-05T12:47:31.174Z,100167.48
2022-08-05T12:50:15.409Z,100169.08
2022-08-05T12:53:00.199Z,100162.91
2022-08-05T12:55:42.552Z,100157.38
2022-08-05T12:58:52.342Z,100149.48
2022-08-05T13:02:01.241Z,100147.62
2022-08-05T13:04:41.759Z,100148.30
2022-08-05T13:08:00.204Z,100146.36
2022-08-05T13:10:50.170Z,100145.08
2022-08-05T13:14:05.601Z,100146.71
2022-08-05T13:16:48.047Z,100146.80
2022-08-05T13:19:50.946Z,100136.59
2022-08-05T13:22:34.717Z,100137.09
2022-08-05T13:25:21.959Z,100137.30
2022-08-05T13:28:05.297Z,100136.02
2022-08-05T13:30:48.390Z,100130.31
2022-08-05T13:34:23.461Z,100132.17
2022-08-05T13:36:33.555Z,100128.52
2022-08-05T13:39:24.613Z,100123.45
2022-08-05T13:42:17.608Z,100117.02
2022-08-05T13:45:01.041Z,100102.55
2022-08-05T13:48:08.597Z,100121.35
2022-08-05T13:50:45.004Z,100121.39
2022-08-05T13:53:29.458Z,100118.81
2022-08-05T13:56:18.799Z,100115.15
2022-08-05T13:59:05.955Z,100112.96
2022-08-05T14:02:03.205Z,100114.14
2022-08-05T14:05:05.785Z,100111.55
2022-08-05T14:08:03.015Z,100107.16
2022-08-05T14:10:50.618Z,100112.84
2022-08-05T14:13:32.567Z,100108.09
2022-08-05T14:16:16.624Z,100106.30
2022-08-05T14:19:04.605Z,100104.82
2022-08-05T14:22:10.245Z,100102.82
2022-08-05T14:24:49.127Z,100102.95
2022-08-05T14:27:32.253Z,100101.41
2022-08-05T14:30:20.190Z,100099.26
2022-08-05T14:33:04.955Z,100105.64
2022-08-05T14:35:51.927Z,100102.30
2022-08-05T14:38:36.250Z,100097.88
2022-08-05T14:41:18.692Z,100096.98
2022-08-05T14:44:09.743Z,100093.33
2022-08-05T14:47:03.008Z,100092.85
2022-08-05T14:49:56.484Z,100090.84
2022-08-05T14:52:52.388Z,100091.27
2022-08-05T14:55:39.429Z,100094.23
2022-08-05T14:58:22.739Z,100095.27
2022-08-05T15:01:05.456Z,100097.34
2022-08-05T15:03:58.511Z,100094.39
2022-08-05T15:06:40.626Z,100089.55
2022-08-05T15:09:51.841Z,100085.36
2022-08-05T15:12:24.728Z,100078.57
2022-08-05T15:15:13.641Z,100077.92
2022-08-05T15:17:57.380Z,100074.05
2022-08-05T15:20:45.995Z,100069.67
2022-08-05T15:23:28.031Z,100072.48
2022-08-05T15:26:10.439Z,100071.29
2022-08-05T15:28:52.846Z,100069.85
2022-08-05T15:31:35.169Z,100069.73
2022-08-05T15:34:31.653Z,100069.04
2022-08-05T15:37:19.365Z,100066.98
2022-08-05T15:41:00.017Z,100065.52
2022-08-05T15:43:21.298Z,100057.40
2022-08-05T15:46:03.819Z,100056.18
2022-08-05T15:48:53.083Z,100051.86
2022-08-05T15:52:09.706Z,100056.05
2022-08-05T15:54:45.859Z,100056.54
2022-08-05T15:57:34.708Z,100056.49
2022-08-05T16:00:32.691Z,100058.89
2022-08-05T16:03:20.322Z,100057.25
2022-08-05T16:06:02.881Z,100058.90
2022-08-05T16:08:46.570Z,100062.32
2022-08-05T16:11:42.825Z,100063.19
2022-08-05T16:14:25.516Z,100068.80
2022-08-05T16:17:07.631Z,100067.77
2022-08-05T16:20:04.959Z,100067.81
2022-08-05T16:22:49.751Z,100082.59
2022-08-05T16:25:34.023Z,100109.29
2022-08-05T16:28:16.908Z,100119.27
2022-08-05T16:30:59.290Z,100120.48
2022-08-05T16:33:42.007Z,100119.68
2022-08-05T16:36:24.438Z,100124.39
2022-08-05T16:39:09.688Z,100127.10
2022-08-05T16:42:14.938Z,100132.40
2022-08-05T16:44:59.617Z,100143.74
2022-08-05T16:47:53.454Z,100141.44
2022-08-05T16:50:38.465Z,100153.64
2022-08-05T16:53:32.140Z,100164.10
2022-08-05T16:56:14.754Z,100165.60
2022-08-05T16:58:57.870Z,100168.39
2022-08-05T17:01:58.104Z,100182.47
2022-08-05T17:04:42.347Z,100200.11
2022-08-05T17:07:39.199Z,100207.37
2022-08-05T17:10:26.455Z,100218.18
2022-08-05T17:13:16.923Z,100223.14
2022-08-05T17:16:26.455Z,100232.73
2022-08-05T17:19:02.310Z,100241.52
2022-08-05T17:21:51.478Z,100259.10
2022-08-05T17:24:38.738Z,100268.05
2022-08-05T17:27:24.587Z,100271.73
2022-08-05T17:30:18.721Z,100271.45
2022-08-05T17:33:10.135Z,100274.38
2022-08-05T17:36:08.453Z,100285.92
2022-08-05T17:38:52.122Z,100284.22
2022-08-05T17:42:18.861Z,100280.88
2022-08-05T17:44:36.377Z,100274.08
2022-08-05T17:47:22.295Z,100273.70
2022-08-05T17:50:10.614Z,100262.50
2022-08-05T17:52:55.049Z,100268.66
2022-08-05T17:55:40.056Z,100283.48
2022-08-05T17:58:32.532Z,100292.89
2022-08-05T18:01:15.110Z,100296.15
2022-08-05T18:04:03.752Z,100296.88
2022-08-05T18:06:46.768Z,100300.56
2022-08-05T18:09:59.881Z,100303.35
2022-08-05T18:12:34.931Z,100306.67
2022-08-05T18:15:17.032Z,100301.99
2022-08-05T18:18:03.563Z,100308.70
2022-08-05T18:20:48.092Z,100311.70
2022-08-05T18:23:45.827Z,100318.24
2022-08-05T18:26:32.143Z,100320.45
2022-08-05T18:29:15.181Z,100326.23
2022-08-05T18:31:58.921Z,100330.80
2022-08-05T18:34:42.913Z,100335.42
2022-08-05T18:37:34.278Z,100339.48
2022-08-05T18:40:31.766Z,100340.08
2022-08-05T18:43:24.700Z,100353.94
2022-08-05T18:46:13.496Z,100353.33
2022-08-05T18:48:55.867Z,100356.05
2022-08-05T18:52:06.598Z,100357.02
2022-08-05T18:54:50.500Z,100361.23
2022-08-05T18:57:50.147Z,100362.59
2022-08-05T19:00:35.567Z,100367.04
2022-08-05T19:03:18.487Z,100368.73
2022-08-05T19:06:21.705Z,100378.16
2022-08-05T19:09:04.502Z,100378.11
2022-08-05T19:12:00.346Z,100380.81
2022-08-05T19:15:00.899Z,100383.85
2022-08-05T19:17:59.445Z,100393.33
2022-08-05T19:20:50.282Z,100393.16
2022-08-05T19:24:06.211Z,100394.73
2022-08-05T19:26:54.702Z,100399.80
2022-08-05T19:29:38.982Z,100407.00
2022-08-05T19:32:22.354Z,100410.65
2022-08-05T19:35:09.910Z,100411.71
2022-08-05T19:38:06.289Z,100410.09
2022-08-05T19:40:50.631Z,100419.93
2022-08-05T19:44:06.192Z,100422.66
2022-08-05T19:46:39.248Z,100430.27
2022-08-05T19:49:23.399Z,100426.09
2022-08-05T19:52:30.717Z,100430.70
2022-08-05T19:56:14.578Z,100430.05
2022-08-05T19:58:29.401Z,100434.48
2022-08-05T20:01:13.791Z,100437.22
2022-08-05T20:03:56.278Z,100433.92
2022-08-05T20:06:45.863Z,100431.77
2022-08-05T20:09:28.978Z,100432.84
2022-08-05T20:12:31.867Z,100441.63
2022-08-05T20:15:14.991Z,100436.38
2022-08-05T20:18:09.772Z,100422.98
2022-08-05T20:20:55.360Z,100426.96
2022-08-05T20:23:51.199Z,100437.74
2022-08-05T20:26:36.697Z,100438.35
2022-08-05T20:29:27.494Z,100436.12
2022-08-05T20:32:10.321Z,100436.15
2022-08-05T20:34:55.322Z,100441.70
2022-08-05T20:38:05.759Z,100446.66
2022-08-05T20:40:39.637Z,100453.13
2022-08-05T20:43:57.901Z,100456.34
2022-08-05T20:46:27.291Z,100459.48
2022-08-05T20:49:09.287Z,100465.11
2022-08-05T20:51:57.534Z,100464.25
2022-08-05T20:54:43.610Z,100466.16
2022-08-05T20:57:44.241Z,100470.44
2022-08-05T21:00:51.862Z,100474.42
2022-08-05T21:03:28.735Z,100483.54
2022-08-05T21:06:28.792Z,100491.79
2022-08-05T21:09:11.576Z,100493.00
2022-08-05T21:12:09.121Z,100488.52
2022-08-05T21:14:58.044Z,100493.02
2022-08-05T21:17:40.712Z,100497.35
2022-08-05T21:20:33.537Z,100496.27
2022-08-05T21:23:16.791Z,100498.68
2022-08-05T21:25:59.406Z,100504.77
2022-08-05T21:28:48.020Z,100511.06
2022-08-05T21:31:41.579Z,100524.00
2022-08-05T21:34:23.832Z,100528.83
2022-08-05T21:37:08.334Z,100545.14
2022-08-05T21:39:52.739Z,100545.02
2022-08-05T21:42:44.196Z,100547.85
2022-08-05T21:45:56.607Z,100548.81
2022-08-05T21:48:35.362Z,100554.84
2022-08-05T21:52:16.727Z,100555.81
2022-08-05T21:54:30.858Z,100558.23
2022-08-05T21:57:31.456Z,100563.98
2022-08-05T22:00:14.845Z,100570.98
2022-08-05T22:02:56.793Z,100569.85
2022-08-05T22:05:48.811Z,100570.45
2022-08-05T22:08:31.233Z,100580.97
2022-08-05T22:11:15.658Z,100584.23
2022-08-05T22:14:06.507Z,100587.46
2022-08-05T22:17:04.845Z,100598.85
2022-08-05T22:20:00.579Z,100602.66
2022-08-05T22:23:16.972Z,100601.36
2022-08-05T22:26:22.552Z,100605.36
2022-08-05T22:29:06.966Z,100610.86
2022-08-05T22:31:55.346Z,100608.83
2022-08-05T22:34:41.550Z,100605.16
2022-08-05T22:37:23.494Z,100611.27
2022-08-05T22:40:25.514Z,100611.36
2022-08-05T22:43:07.354Z,100612.91
2022-08-05T22:45:50.741Z,100617.56
2022-08-05T22:48:33.097Z,100623.10
2022-08-05T22:51:23.216Z,100628.65
2022-08-05T22:54:19.216Z,100627.23
2022-08-05T22:57:06.998Z,100625.89
2022-08-05T22:59:54.165Z,100621.58
2022-08-05T23:02:40.044Z,100628.31
2022-08-05T23:05:29.012Z,100624.17
2022-08-05T23:08:17.926Z,100631.52
2022-08-05T23:10:59.766Z,100632.00
2022-08-05T23:13:42.433Z,100628.73
2022-08-05T23:16:44.297Z,100630.29
2022-08-05T23:19:38.475Z,100629.54
2022-08-05T23:22:28.876Z,100630.48
2022-08-05T23:25:11.373Z,100635.45
2022-08-05T23:28:00.335Z,100640.24
2022-08-05T23:30:43.891Z,100639.06
2022-08-05T23:34:04.794Z,100641.50
2022-08-05T23:36:39.744Z,100646.04
2022-08-05T23:39:32.521Z,100651.15
2022-08-05T23:42:29.365Z,100660.16
2022-08-05T23:45:13.890Z,100667.55
2022-08-05T23:47:59.499Z,100673.38
2022-08-05T23:50:46.580Z,100675.33
2022-08-05T23:53:46.402Z,100671.95
2022-08-05T23:56:29.110Z,100675.64
2022-08-05T23:59:11.211Z,100683.23
